createdAt,value
2022-11-14T00:00:38.638Z,4.43
2022-11-14T00:03:26.874Z,4.43
2022-11-14T00:06:13.848Z,4.39
2022-11-14T00:09:01.380Z,4.35
2022-11-14T00:11:49.528Z,4.26
2022-11-14T00:14:36.603Z,4.24
2022-11-14T00:17:23.571Z,4.24
2022-11-14T00:20:12.790Z,4.20
2022-11-14T00:22:59.542Z,4.12
2022-11-14T00:25:46.876Z,4.02
2022-11-14T00:28:35.155Z,3.91
2022-11-14T00:31:22.445Z,4.01
2022-11-14T00:34:10.057Z,3.92
2022-11-14T00:36:57.013Z,3.88
2022-11-14T00:39:43.786Z,3.78
2022-11-14T00:42:30.843Z,3.74
2022-11-14T00:45:19.488Z,3.69
2022-11-14T00:48:06.494Z,3.65
2022-11-14T00:50:53.359Z,3.64
2022-11-14T00:53:40.208Z,3.58
2022-11-14T00:56:27.588Z,3.56
2022-11-14T00:59:17.594Z,3.61
2022-11-14T01:02:06.384Z,3.65
2022-11-14T01:04:53.717Z,3.64
2022-11-14T01:07:40.691Z,3.57
2022-11-14T01:10:27.722Z,3.64
2022-11-14T01:13:15.375Z,3.67
2022-11-14T01:16:02.966Z,3.59
2022-11-14T01:18:51.381Z,3.59
2022-11-14T01:21:38.143Z,3.62
2022-11-14T01:24:25.075Z,3.76
2022-11-14T01:27:12.023Z,4.02
2022-11-14T01:29:58.882Z,4.19
2022-11-14T01:32:46.055Z,4.16
2022-11-14T01:35:34.888Z,4.39
2022-11-14T01:38:22.093Z,4.63
2022-11-14T01:41:09.299Z,4.80
2022-11-14T01:43:56.525Z,4.78
2022-11-14T01:46:46.929Z,4.63
2022-11-14T01:49:37.589Z,4.42
2022-11-14T01:52:30.177Z,4.33
2022-11-14T01:55:16.990Z,4.24
2022-11-14T01:58:04.680Z,4.15
2022-11-14T02:00:51.801Z,4.15
2022-11-14T02:03:41.458Z,4.06
2022-11-14T02:06:31.681Z,4.02
2022-11-14T02:09:19.818Z,4.00
2022-11-14T02:12:09.839Z,3.92
2022-11-14T02:14:58.457Z,3.89
2022-11-14T02:17:45.704Z,3.86
2022-11-14T02:20:36.183Z,3.79
2022-11-14T02:23:27.839Z,3.75
2022-11-14T02:26:17.347Z,3.74
2022-11-14T02:29:04.671Z,3.70
2022-11-14T02:31:51.472Z,3.70
2022-11-14T02:34:38.035Z,3.67
2022-11-14T02:37:26.292Z,3.70
2022-11-14T02:40:13.431Z,3.70
2022-11-14T02:43:00.460Z,3.86
2022-11-14T02:45:47.589Z,3.92
2022-11-14T02:48:34.413Z,3.86
2022-11-14T02:51:21.325Z,3.79
2022-11-14T02:54:09.746Z,3.75
2022-11-14T02:56:56.673Z,3.93
2022-11-14T02:59:43.602Z,4.00
2022-11-14T03:02:30.459Z,4.12
2022-11-14T03:05:17.266Z,4.03
2022-11-14T03:08:04.340Z,3.95
2022-11-14T03:10:52.316Z,3.86
2022-11-14T03:13:39.235Z,3.80
2022-11-14T03:16:26.257Z,3.76
2022-11-14T03:19:12.931Z,3.67
2022-11-14T03:21:59.536Z,3.64
2022-11-14T03:24:46.210Z,3.56
2022-11-14T03:27:34.045Z,3.52
2022-11-14T03:30:20.899Z,3.45
2022-11-14T03:33:07.795Z,3.45
2022-11-14T03:35:54.782Z,3.39
2022-11-14T03:38:41.354Z,3.39
2022-11-14T03:41:28.473Z,3.32
2022-11-14T03:44:16.595Z,3.28
2022-11-14T03:47:03.702Z,3.27
2022-11-14T03:49:50.374Z,3.29
2022-11-14T03:52:37.066Z,3.27
2022-11-14T03:55:23.584Z,3.23
2022-11-14T03:58:10.279Z,3.17
2022-11-14T04:00:58.608Z,3.13
2022-11-14T04:03:45.630Z,3.14
2022-11-14T04:06:32.830Z,3.10
2022-11-14T04:09:19.387Z,3.10
2022-11-14T04:12:10.037Z,3.04
2022-11-14T04:14:59.788Z,3.05
2022-11-14T04:17:48.363Z,3.32
2022-11-14T04:20:35.252Z,3.61
2022-11-14T04:23:22.346Z,3.82
2022-11-14T04:26:09.431Z,3.86
2022-11-14T04:28:56.415Z,3.94
2022-11-14T04:31:43.131Z,3.95
2022-11-14T04:34:31.647Z,4.00
2022-11-14T04:37:18.187Z,3.99
2022-11-14T04:40:05.815Z,3.94
2022-11-14T04:42:52.707Z,3.94
2022-11-14T04:45:39.089Z,3.97
2022-11-14T04:48:25.829Z,3.93
2022-11-14T04:51:13.955Z,3.84
2022-11-14T04:54:01.014Z,3.75
2022-11-14T04:56:47.967Z,3.71
2022-11-14T04:59:34.647Z,3.75
2022-11-14T05:02:21.723Z,3.74
2022-11-14T05:05:09.287Z,3.74
2022-11-14T05:07:57.309Z,3.75
2022-11-14T05:10:45.481Z,3.84
2022-11-14T05:13:32.567Z,3.85
2022-11-14T05:16:19.557Z,3.85
2022-11-14T05:19:06.611Z,3.84
2022-11-14T05:21:54.494Z,3.79
2022-11-14T05:24:42.817Z,3.73
2022-11-14T05:27:30.640Z,3.76
2022-11-14T05:30:17.837Z,3.71
2022-11-14T05:33:04.641Z,3.74
2022-11-14T05:35:51.568Z,3.76
2022-11-14T05:38:38.656Z,3.69
2022-11-14T05:41:26.793Z,3.62
2022-11-14T05:44:13.862Z,3.59
2022-11-14T05:47:00.671Z,3.52
2022-11-14T05:49:47.588Z,3.50
2022-11-14T05:52:34.467Z,3.48
2022-11-14T05:55:24.878Z,3.42
2022-11-14T05:58:13.556Z,3.41
2022-11-14T06:01:05.021Z,3.47
2022-11-14T06:03:52.162Z,3.47
2022-11-14T06:06:39.567Z,3.42
2022-11-14T06:09:26.327Z,3.39
2022-11-14T06:12:13.226Z,3.35
2022-11-14T06:15:01.327Z,3.35
2022-11-14T06:17:47.997Z,3.35
2022-11-14T06:20:34.776Z,3.49
2022-11-14T06:23:24.718Z,3.50
2022-11-14T06:26:19.782Z,3.43
2022-11-14T06:29:07.647Z,3.46
2022-11-14T06:31:55.712Z,3.47
2022-11-14T06:34:42.504Z,3.52
2022-11-14T06:37:33.426Z,3.52
2022-11-14T06:40:20.810Z,3.55
2022-11-14T06:43:08.112Z,3.57
2022-11-14T06:45:55.441Z,3.57
2022-11-14T06:48:44.993Z,3.53
2022-11-14T06:51:31.724Z,3.63
2022-11-14T06:54:18.580Z,3.61
2022-11-14T06:57:05.445Z,3.57
2022-11-14T06:59:52.624Z,3.47
2022-11-14T07:02:39.579Z,3.43
2022-11-14T07:05:53.026Z,3.46
2022-11-14T07:08:39.943Z,3.52
2022-11-14T07:11:30.157Z,3.54
2022-11-14T07:14:16.772Z,3.54
2022-11-14T07:17:03.402Z,3.55
2022-11-14T07:19:50.340Z,3.56
2022-11-14T07:22:38.653Z,3.54
2022-11-14T07:25:25.341Z,3.50
2022-11-14T07:28:12.406Z,3.48
2022-11-14T07:30:59.173Z,3.44
2022-11-14T07:33:47.154Z,3.40
2022-11-14T07:36:34.128Z,3.43
2022-11-14T07:39:22.447Z,3.47
2022-11-14T07:42:09.004Z,3.53
2022-11-14T07:44:55.984Z,3.55
2022-11-14T07:47:43.014Z,3.64
2022-11-14T07:50:31.313Z,3.69
2022-11-14T07:53:18.532Z,3.71
2022-11-14T07:56:10.750Z,3.74
2022-11-14T07:58:57.883Z,3.95
2022-11-14T08:01:44.710Z,4.09
2022-11-14T08:04:31.594Z,4.14
2022-11-14T08:07:18.663Z,4.23
2022-11-14T08:10:06.055Z,4.42
2022-11-14T08:13:25.175Z,4.50
2022-11-14T08:16:13.263Z,4.64
2022-11-14T08:19:01.489Z,4.71
2022-11-14T08:21:48.320Z,4.81
2022-11-14T08:24:35.661Z,4.93
2022-11-14T08:27:22.210Z,4.94
2022-11-14T08:30:12.038Z,5.06
2022-11-14T08:32:59.179Z,5.22
2022-11-14T08:35:45.864Z,5.26
2022-11-14T08:38:33.774Z,5.33
2022-11-14T08:41:20.756Z,5.39
2022-11-14T08:44:07.681Z,5.40
2022-11-14T08:46:55.812Z,5.42
2022-11-14T08:49:42.456Z,5.63
2022-11-14T08:52:28.922Z,5.55
2022-11-14T08:55:15.810Z,5.62
2022-11-14T08:58:02.583Z,5.81
2022-11-14T09:00:51.999Z,5.84
2022-11-14T09:03:40.381Z,5.84
2022-11-14T09:06:27.325Z,5.98
2022-11-14T09:09:14.332Z,6.01
2022-11-14T09:12:00.982Z,6.08
2022-11-14T09:14:47.732Z,6.13
2022-11-14T09:17:35.329Z,6.21
2022-11-14T09:20:28.525Z,6.25
2022-11-14T09:23:19.644Z,6.37
2022-11-14T09:26:06.548Z,6.42
2022-11-14T09:28:53.295Z,6.42
2022-11-14T09:31:40.167Z,6.43
2022-11-14T09:34:26.869Z,6.61
2022-11-14T09:37:15.312Z,6.71
2022-11-14T09:40:01.946Z,6.73
2022-11-14T09:43:03.856Z,6.86
2022-11-14T09:45:53.364Z,6.95
2022-11-14T09:48:40.819Z,6.94
2022-11-14T09:51:32.387Z,7.18
2022-11-14T09:54:24.101Z,7.16
2022-11-14T09:57:17.469Z,7.22
2022-11-14T10:00:08.042Z,7.25
2022-11-14T10:03:08.628Z,7.53
2022-11-14T10:06:13.791Z,7.67
2022-11-14T10:09:30.410Z,7.73
2022-11-14T10:12:24.650Z,7.73
2022-11-14T10:15:23.365Z,7.81
2022-11-14T10:18:37.533Z,7.93
2022-11-14T10:21:36.447Z,8.04
2022-11-14T10:24:42.009Z,8.00
2022-11-14T10:27:34.610Z,8.14
2022-11-14T10:30:21.533Z,8.13
2022-11-14T10:33:22.051Z,8.33
2022-11-14T10:36:16.463Z,8.35
2022-11-14T10:39:11.926Z,8.43
2022-11-14T10:42:07.628Z,8.44
2022-11-14T10:45:03.941Z,8.65
2022-11-14T10:47:55.294Z,8.62
2022-11-14T10:50:49.975Z,8.81
2022-11-14T10:53:46.828Z,8.83
2022-11-14T10:56:33.969Z,8.96
2022-11-14T10:59:20.979Z,8.85
2022-11-14T11:02:09.894Z,8.78
2022-11-14T11:05:12.821Z,8.87
2022-11-14T11:08:42.103Z,9.03
2022-11-14T11:11:31.064Z,9.14
2022-11-14T11:14:19.279Z,9.23
2022-11-14T11:17:29.581Z,9.25
2022-11-14T11:20:32.384Z,9.20
2022-11-14T11:23:23.015Z,9.25
2022-11-14T11:26:18.466Z,9.36
2022-11-14T11:29:08.882Z,9.32
2022-11-14T11:31:57.968Z,9.41
2022-11-14T11:34:46.778Z,9.54
2022-11-14T11:37:36.791Z,9.46
2022-11-14T11:40:26.536Z,9.56
2022-11-14T11:46:33.257Z,9.71
2022-11-14T11:49:24.839Z,9.80
2022-11-14T11:52:21.073Z,9.76
2022-11-14T11:55:18.026Z,9.95
2022-11-14T11:58:07.667Z,9.95
2022-11-14T12:00:55.931Z,9.96
2022-11-14T12:03:44.203Z,9.96
2022-11-14T12:06:39.972Z,9.99
2022-11-14T12:10:08.257Z,10.05
2022-11-14T12:13:01.037Z,9.96
2022-11-14T12:15:58.567Z,10.04
2022-11-14T12:19:11.112Z,9.91
2022-11-14T12:22:13.039Z,9.98
2022-11-14T12:25:26.355Z,10.04
2022-11-14T12:28:53.611Z,10.20
2022-11-14T12:31:41.322Z,10.16
2022-11-14T12:34:32.756Z,10.09
2022-11-14T12:37:25.150Z,10.13
2022-11-14T12:40:25.454Z,10.00
2022-11-14T12:43:35.990Z,9.93
2022-11-14T12:46:23.219Z,9.86
2022-11-14T12:49:38.450Z,9.84
2022-11-14T12:52:48.777Z,9.78
2022-11-14T12:56:13.033Z,9.94
2022-11-14T12:59:16.626Z,9.76
2022-11-14T13:02:26.903Z,9.49
2022-11-14T13:05:24.539Z,9.35
2022-11-14T13:08:23.404Z,9.40
2022-11-14T13:11:50.300Z,9.37
2022-11-14T13:15:08.144Z,9.27
2022-11-14T13:18:23.112Z,9.17
2022-11-14T13:21:45.376Z,9.11
2022-11-14T13:25:17.663Z,8.83
2022-11-14T13:28:37.754Z,8.60
2022-11-14T13:31:27.089Z,8.27
2022-11-14T13:34:41.437Z,7.82
2022-11-14T13:37:42.053Z,7.76
2022-11-14T13:40:36.020Z,7.13
2022-11-14T13:43:31.208Z,6.71
2022-11-14T13:46:33.187Z,6.65
2022-11-14T13:49:33.900Z,6.75
2022-11-14T13:52:20.971Z,6.87
2022-11-14T13:55:08.638Z,6.66
2022-11-14T13:58:08.851Z,6.51
2022-11-14T14:01:10.948Z,6.46
2022-11-14T14:04:21.590Z,6.52
2022-11-14T14:07:15.771Z,6.52
2022-11-14T14:10:10.678Z,6.44
2022-11-14T14:13:11.123Z,6.23
2022-11-14T14:16:07.173Z,6.24
2022-11-14T14:19:06.557Z,6.27
2022-11-14T14:22:02.843Z,6.28
2022-11-14T14:24:56.528Z,6.25
2022-11-14T14:27:55.741Z,6.23
2022-11-14T14:30:42.720Z,6.30
2022-11-14T14:33:30.191Z,6.29
2022-11-14T14:36:26.427Z,6.10
2022-11-14T14:39:18.917Z,6.08
2022-11-14T14:42:12.485Z,6.20
2022-11-14T14:45:00.227Z,6.10
2022-11-14T14:47:50.974Z,5.99
2022-11-14T14:50:40.927Z,5.99
2022-11-14T14:53:30.958Z,5.98
2022-11-14T14:56:20.574Z,6.04
2022-11-14T14:59:22.058Z,6.08
2022-11-14T15:02:15.770Z,6.08
2022-11-14T15:05:03.220Z,6.11
2022-11-14T15:07:52.117Z,6.10
2022-11-14T15:10:41.972Z,6.13
2022-11-14T15:13:30.364Z,6.00
2022-11-14T15:16:17.234Z,5.96
2022-11-14T15:19:05.116Z,5.99
2022-11-14T15:22:05.585Z,5.96
2022-11-14T15:25:19.463Z,6.04
2022-11-14T15:28:17.893Z,5.90
2022-11-14T15:31:06.197Z,5.87
2022-11-14T15:34:04.306Z,5.81
2022-11-14T15:37:24.586Z,5.86
2022-11-14T15:40:19.738Z,5.82
2022-11-14T15:43:38.947Z,5.84
2022-11-14T15:46:43.440Z,5.84
2022-11-14T15:49:30.714Z,5.78
2022-11-14T15:52:22.145Z,5.86
2022-11-14T15:55:17.749Z,5.96
2022-11-14T15:58:27.167Z,5.90
2022-11-14T16:01:18.348Z,5.89
2022-11-14T16:04:05.457Z,5.85
2022-11-14T16:06:52.064Z,5.92
2022-11-14T16:09:38.915Z,5.90
2022-11-14T16:12:25.695Z,6.00
2022-11-14T16:15:12.834Z,5.98
2022-11-14T16:18:01.226Z,6.00
2022-11-14T16:20:47.845Z,5.99
2022-11-14T16:23:34.734Z,6.04
2022-11-14T16:26:22.088Z,5.97
2022-11-14T16:29:09.116Z,6.01
2022-11-14T16:31:56.339Z,6.11
2022-11-14T16:34:44.356Z,6.20
2022-11-14T16:37:30.959Z,6.19
2022-11-14T16:40:21.471Z,6.13
2022-11-14T16:43:14.355Z,6.16
2022-11-14T16:46:04.783Z,6.21
2022-11-14T16:48:52.217Z,6.23
2022-11-14T16:51:48.480Z,6.16
2022-11-14T16:54:36.308Z,6.22
2022-11-14T16:57:25.666Z,6.25
2022-11-14T17:00:14.443Z,6.25
2022-11-14T17:03:01.403Z,6.30
2022-11-14T17:05:50.595Z,6.31
2022-11-14T17:08:39.226Z,6.28
2022-11-14T17:11:26.995Z,6.37
2022-11-14T17:14:13.590Z,6.28
2022-11-14T17:17:02.903Z,6.33
2022-11-14T17:19:49.770Z,6.34
2022-11-14T17:22:36.374Z,6.30
2022-11-14T17:25:25.081Z,6.36
2022-11-14T17:28:12.023Z,6.35
2022-11-14T17:30:58.446Z,6.38
2022-11-14T17:33:50.930Z,6.38
2022-11-14T17:36:37.766Z,6.38
2022-11-14T17:39:24.862Z,6.38
2022-11-14T17:42:12.965Z,6.42
2022-11-14T17:45:00.984Z,6.46
2022-11-14T17:47:47.551Z,6.46
2022-11-14T17:50:37.671Z,6.46
2022-11-14T17:53:24.873Z,6.41
2022-11-14T17:56:18.331Z,6.43
2022-11-14T17:59:06.581Z,6.43
2022-11-14T18:01:55.968Z,6.46
2022-11-14T18:04:42.900Z,6.42
2022-11-14T18:07:33.083Z,6.49
2022-11-14T18:10:20.014Z,6.46
2022-11-14T18:13:08.246Z,6.49
2022-11-14T18:15:56.564Z,6.42
2022-11-14T18:18:43.978Z,6.45
2022-11-14T18:21:30.814Z,6.48
2022-11-14T18:24:17.381Z,6.46
2022-11-14T18:27:04.360Z,6.58
2022-11-14T18:29:51.150Z,6.54
2022-11-14T18:32:39.435Z,6.57
2022-11-14T18:35:26.676Z,6.59
2022-11-14T18:38:13.558Z,6.61
2022-11-14T18:41:01.326Z,6.64
2022-11-14T18:43:49.032Z,6.65
2022-11-14T18:46:37.617Z,6.68
2022-11-14T18:49:28.310Z,6.70
2022-11-14T18:52:17.560Z,6.66
2022-11-14T18:55:05.433Z,6.60
2022-11-14T18:57:52.326Z,6.72
2022-11-14T19:00:38.926Z,6.68
2022-11-14T19:03:25.790Z,6.67
2022-11-14T19:06:14.570Z,6.68
2022-11-14T19:09:05.544Z,6.71
2022-11-14T19:12:12.207Z,6.76
2022-11-14T19:14:59.200Z,6.81
2022-11-14T19:17:48.508Z,6.84
2022-11-14T19:20:35.383Z,6.84
2022-11-14T19:23:23.382Z,6.88
2022-11-14T19:26:10.583Z,6.87
2022-11-14T19:29:00.420Z,6.93
2022-11-14T19:31:47.147Z,6.90
2022-11-14T19:34:34.178Z,6.93
2022-11-14T19:37:21.261Z,7.02
2022-11-14T19:40:11.063Z,7.03
2022-11-14T19:43:01.859Z,7.07
2022-11-14T19:45:49.461Z,7.09
2022-11-14T19:48:40.759Z,7.14
2022-11-14T19:51:28.134Z,7.13
2022-11-14T19:54:14.875Z,7.16
2022-11-14T19:57:03.186Z,7.11
2022-11-14T19:59:49.773Z,7.12
2022-11-14T20:02:39.503Z,7.15
2022-11-14T20:05:25.993Z,7.20
2022-11-14T20:08:12.780Z,7.28
2022-11-14T20:11:00.820Z,7.25
2022-11-14T20:13:49.474Z,7.25
2022-11-14T20:16:37.914Z,7.29
2022-11-14T20:19:24.691Z,7.32
2022-11-14T20:22:11.677Z,7.28
2022-11-14T20:24:58.524Z,7.29
2022-11-14T20:27:45.082Z,7.29
2022-11-14T20:30:32.984Z,7.29
2022-11-14T20:33:19.765Z,7.29
2022-11-14T20:36:08.921Z,7.30
2022-11-14T20:38:57.251Z,7.33
2022-11-14T20:41:44.440Z,7.32
2022-11-14T20:44:30.890Z,7.34
2022-11-14T20:47:19.062Z,7.37
2022-11-14T20:50:06.768Z,7.39
2022-11-14T20:52:53.358Z,7.41
2022-11-14T20:55:40.218Z,7.42
2022-11-14T20:58:26.972Z,7.46
2022-11-14T21:01:13.844Z,7.43
2022-11-14T21:04:01.959Z,7.44
2022-11-14T21:06:49.021Z,7.45
2022-11-14T21:09:36.413Z,7.52
2022-11-14T21:12:23.340Z,7.50
2022-11-14T21:15:11.154Z,7.57
2022-11-14T21:17:57.822Z,7.54
2022-11-14T21:20:45.839Z,7.56
2022-11-14T21:23:32.556Z,7.57
2022-11-14T21:26:21.168Z,7.56
2022-11-14T21:29:09.317Z,7.60
2022-11-14T21:31:56.035Z,7.63
2022-11-14T21:34:42.698Z,7.60
2022-11-14T21:37:31.056Z,7.64
2022-11-14T21:40:17.970Z,7.69
2022-11-14T21:43:04.887Z,7.73
2022-11-14T21:45:58.771Z,7.73
2022-11-14T21:48:47.567Z,7.73
2022-11-14T21:51:34.173Z,7.75
2022-11-14T21:54:22.518Z,7.78
2022-11-14T21:57:10.443Z,7.81
2022-11-14T21:59:57.307Z,7.88
2022-11-14T22:03:01.753Z,7.92
2022-11-14T22:05:48.592Z,8.00
2022-11-14T22:08:35.459Z,8.02
2022-11-14T22:11:24.239Z,8.04
2022-11-14T22:14:10.832Z,8.08
2022-11-14T22:16:58.973Z,8.12
2022-11-14T22:19:45.860Z,8.14
2022-11-14T22:22:33.083Z,8.19
2022-11-14T22:25:19.860Z,8.19
2022-11-14T22:28:07.905Z,8.19
2022-11-14T22:31:06.283Z,8.24
2022-11-14T22:33:54.994Z,8.24
2022-11-14T22:36:41.589Z,8.22
2022-11-14T22:39:28.134Z,8.20
2022-11-14T22:42:15.100Z,8.26
2022-11-14T22:45:03.487Z,8.22
2022-11-14T22:47:50.169Z,8.21
2022-11-14T22:50:37.039Z,8.20
2022-11-14T22:53:24.938Z,8.29
2022-11-14T22:56:12.521Z,8.38
2022-11-14T22:59:00.606Z,8.43
2022-11-14T23:01:48.607Z,8.49
2022-11-14T23:04:35.072Z,8.53
2022-11-14T23:07:21.970Z,8.60
2022-11-14T23:10:09.951Z,8.58
2022-11-14T23:12:59.015Z,8.66
2022-11-14T23:15:49.263Z,8.73
2022-11-14T23:18:37.692Z,8.74
2022-11-14T23:21:26.958Z,8.82
2022-11-14T23:24:15.698Z,8.78
2022-11-14T23:27:02.486Z,8.79
2022-11-14T23:29:49.048Z,8.82
2022-11-14T23:32:35.860Z,8.87
2022-11-14T23:35:24.182Z,8.95
2022-11-14T23:38:11.020Z,9.08
2022-11-14T23:40:59.764Z,9.26
2022-11-14T23:43:47.366Z,9.32
2022-11-14T23:46:34.133Z,9.37
2022-11-14T23:49:20.998Z,9.41
2022-11-14T23:52:09.072Z,9.44
2022-11-14T23:54:55.816Z,9.56
2022-11-14T23:57:42.672Z,9.59
